createdAt,value
2018-02-24T00:01:57.497Z,15.20
2018-02-24T00:04:25.436Z,14.30
2018-02-24T00:06:53.337Z,12.77
2018-02-24T00:09:21.210Z,15.10
2018-02-24T00:11:49.943Z,15.57
2018-02-24T00:14:17.822Z,14.70
2018-02-24T00:16:46.570Z,15.30
2018-02-24T00:19:14.475Z,13.30
2018-02-24T00:21:42.439Z,16.37
2018-02-24T00:24:10.986Z,12.93
2018-02-24T00:26:38.854Z,14.80
2018-02-24T00:29:06.837Z,13.20
2018-02-24T00:31:40.506Z,14.67
2018-02-24T00:34:08.440Z,15.13
2018-02-24T00:36:36.298Z,13.60
2018-02-24T00:39:04.195Z,14.60
2018-02-24T00:41:32.102Z,13.73
2018-02-24T00:43:59.995Z,13.87
2018-02-24T00:46:27.869Z,14.47
2018-02-24T00:48:55.872Z,13.03
2018-02-24T00:51:23.732Z,13.30
2018-02-24T00:53:51.609Z,14.60
2018-02-24T00:56:19.579Z,13.70
2018-02-24T00:58:47.458Z,12.03
2018-02-24T01:01:15.349Z,14.97
2018-02-24T01:03:43.317Z,14.23
2018-02-24T01:06:11.204Z,14.70
2018-02-24T01:08:39.072Z,13.70
2018-02-24T01:11:06.974Z,12.40
2018-02-24T01:13:34.795Z,12.77
2018-02-24T01:16:03.047Z,13.40
2018-02-24T01:18:31.029Z,12.43
2018-02-24T01:20:58.884Z,12.20
2018-02-24T01:23:26.750Z,13.23
2018-02-24T01:25:54.651Z,11.70
2018-02-24T01:28:22.561Z,13.63
2018-02-24T01:30:50.481Z,12.37
2018-02-24T01:33:18.371Z,11.87
2018-02-24T01:35:46.299Z,13.47
2018-02-24T01:38:14.161Z,12.30
2018-02-24T01:40:42.047Z,12.10
2018-02-24T01:43:09.900Z,13.27
2018-02-24T01:45:37.757Z,12.97
2018-02-24T01:48:05.640Z,13.93
2018-02-24T01:50:39.512Z,14.17
2018-02-24T01:53:07.428Z,14.60
2018-02-24T01:55:35.294Z,15.40
2018-02-24T01:58:03.151Z,14.47
2018-02-24T02:00:31.048Z,13.20
2018-02-24T02:02:58.931Z,14.70
2018-02-24T02:05:26.798Z,13.03
2018-02-24T02:07:54.754Z,12.67
2018-02-24T02:10:22.612Z,13.10
2018-02-24T02:12:50.503Z,13.83
2018-02-24T02:15:18.417Z,13.20
2018-02-24T02:17:49.555Z,13.60
2018-02-24T02:20:17.441Z,11.77
2018-02-24T02:22:45.317Z,12.70
2018-02-24T02:25:13.220Z,11.77
2018-02-24T02:27:41.066Z,12.90
2018-02-24T02:30:08.925Z,11.83
2018-02-24T02:32:36.773Z,12.17
2018-02-24T02:35:04.634Z,10.97
2018-02-24T02:37:32.548Z,12.13
2018-02-24T02:40:00.400Z,11.43
2018-02-24T02:42:28.323Z,12.60
2018-02-24T02:44:56.439Z,11.27
2018-02-24T02:47:24.382Z,12.53
2018-02-24T02:49:52.236Z,14.03
2018-02-24T02:52:20.153Z,12.33
2018-02-24T02:54:47.997Z,11.37
2018-02-24T02:57:15.846Z,12.43
2018-02-24T02:59:43.731Z,12.70
2018-02-24T03:02:11.633Z,11.93
2018-02-24T03:04:39.466Z,11.90
2018-02-24T03:07:07.393Z,11.13
2018-02-24T03:09:35.265Z,11.70
2018-02-24T03:12:03.119Z,9.80
2018-02-24T03:14:30.996Z,10.90
2018-02-24T03:16:58.926Z,11.47
2018-02-24T03:19:26.922Z,10.70
2018-02-24T03:21:54.792Z,10.77
2018-02-24T03:24:22.651Z,10.87
2018-02-24T03:26:50.493Z,10.70
2018-02-24T03:29:18.367Z,11.07
2018-02-24T03:31:46.236Z,10.33
2018-02-24T03:34:14.086Z,9.10
2018-02-24T03:36:42.074Z,10.90
2018-02-24T03:39:10.163Z,11.50
2018-02-24T03:41:38.062Z,9.60
2018-02-24T03:44:05.977Z,7.77
2018-02-24T03:46:33.845Z,9.40
2018-02-24T03:49:01.704Z,10.50
2018-02-24T03:51:29.671Z,9.10
2018-02-24T03:53:57.534Z,9.23
2018-02-24T03:56:25.378Z,8.23
2018-02-24T03:58:53.319Z,9.60
2018-02-24T04:01:21.210Z,7.53
2018-02-24T04:03:49.487Z,8.63
2018-02-24T04:06:17.385Z,10.40
2018-02-24T04:08:45.249Z,8.30
2018-02-24T04:11:13.151Z,6.50
2018-02-24T04:13:41.001Z,8.40
2018-02-24T04:16:08.883Z,5.70
2018-02-24T04:18:36.747Z,8.37
2018-02-24T04:21:04.588Z,9.00
2018-02-24T04:23:32.579Z,8.43
2018-02-24T04:26:00.415Z,8.80
2018-02-24T04:28:28.292Z,7.30
2018-02-24T04:30:56.127Z,7.40
2018-02-24T04:33:24.335Z,8.63
2018-02-24T04:35:52.172Z,9.20
2018-02-24T04:38:20.010Z,8.47
2018-02-24T04:40:48.013Z,8.40
2018-02-24T04:43:15.896Z,8.80
2018-02-24T04:45:43.769Z,8.97
2018-02-24T04:48:11.859Z,8.80
2018-02-24T04:50:39.740Z,8.30
2018-02-24T04:53:07.628Z,8.87
2018-02-24T04:55:35.472Z,7.03
2018-02-24T04:58:03.345Z,9.57
2018-02-24T05:00:31.197Z,9.87
2018-02-24T05:02:59.098Z,8.10
2018-02-24T05:05:27.331Z,9.80
2018-02-24T05:07:55.197Z,10.60
2018-02-24T05:10:23.077Z,9.20
2018-02-24T05:12:50.924Z,9.40
2018-02-24T05:15:18.808Z,10.10
2018-02-24T05:17:46.671Z,9.80
2018-02-24T05:20:14.561Z,8.37
2018-02-24T05:22:42.427Z,10.10
2018-02-24T05:25:10.293Z,9.40
2018-02-24T05:27:38.161Z,9.87
2018-02-24T05:30:06.016Z,8.70
2018-02-24T05:32:33.885Z,6.13
2018-02-24T05:35:01.759Z,9.13
2018-02-24T05:37:29.600Z,9.90
2018-02-24T05:39:57.571Z,9.10
2018-02-24T05:42:25.402Z,9.07
2018-02-24T05:44:53.249Z,9.80
2018-02-24T05:47:21.119Z,8.90
2018-02-24T05:49:49.046Z,9.60
2018-02-24T05:52:16.940Z,8.80
2018-02-24T05:54:44.779Z,9.20
2018-02-24T05:57:12.620Z,9.93
2018-02-24T05:59:40.501Z,9.40
2018-02-24T06:02:08.357Z,9.23
2018-02-24T06:04:36.225Z,9.30
2018-02-24T06:07:04.209Z,7.80
2018-02-24T06:09:32.047Z,10.10
2018-02-24T06:11:59.914Z,7.53
2018-02-24T06:14:27.744Z,9.10
2018-02-24T06:16:56.639Z,9.33
2018-02-24T06:19:24.501Z,9.50
2018-02-24T06:21:52.356Z,8.00
2018-02-24T06:24:20.342Z,6.70
2018-02-24T06:26:48.208Z,6.60
2018-02-24T06:29:16.087Z,8.07
2018-02-24T06:31:43.937Z,7.10
2018-02-24T06:34:12.013Z,6.70
2018-02-24T06:36:39.924Z,6.10
2018-02-24T06:39:07.767Z,7.40
2018-02-24T06:41:35.695Z,5.00
2018-02-24T06:44:03.587Z,6.67
2018-02-24T06:46:31.439Z,8.93
2018-02-24T06:48:59.283Z,6.60
2018-02-24T06:51:27.177Z,7.17
2018-02-24T06:53:55.032Z,6.87
2018-02-24T06:56:22.903Z,7.93
2018-02-24T06:58:50.808Z,6.00
2018-02-24T07:01:18.653Z,8.70
2018-02-24T07:03:46.537Z,6.70
2018-02-24T07:06:14.449Z,6.70
2018-02-24T07:08:42.303Z,4.70
2018-02-24T07:11:10.144Z,5.77
2018-02-24T07:13:38.064Z,4.90
2018-02-24T07:16:05.942Z,3.27
2018-02-24T07:18:33.789Z,3.37
2018-02-24T07:21:01.717Z,2.70
2018-02-24T07:23:29.581Z,2.37
2018-02-24T07:25:57.432Z,3.10
2018-02-24T07:28:25.316Z,3.80
2018-02-24T07:30:53.171Z,2.90
2018-02-24T07:33:21.422Z,2.00
2018-02-24T07:35:49.309Z,2.40
2018-02-24T07:38:17.203Z,2.40
2018-02-24T07:40:45.040Z,2.13
2018-02-24T07:43:13.248Z,2.10
2018-02-24T07:45:41.807Z,1.97
2018-02-24T07:48:09.689Z,2.23
2018-02-24T07:50:37.675Z,2.07
2018-02-24T07:53:05.553Z,1.20
2018-02-24T07:55:33.416Z,1.50
2018-02-24T07:58:01.422Z,1.93
2018-02-24T08:00:29.378Z,2.27
2018-02-24T08:02:57.317Z,1.70
2018-02-24T08:05:25.329Z,1.40
2018-02-24T08:07:53.261Z,3.80
2018-02-24T08:10:21.640Z,1.37
2018-02-24T08:12:49.626Z,1.60
2018-02-24T08:15:17.538Z,1.70
2018-02-24T08:17:45.502Z,1.57
2018-02-24T08:20:13.707Z,1.50
2018-02-24T08:22:41.657Z,1.90
2018-02-24T08:25:09.530Z,3.30
2018-02-24T08:27:37.529Z,2.10
2018-02-24T08:30:05.426Z,2.53
2018-02-24T08:32:33.304Z,2.10
2018-02-24T08:35:01.208Z,1.70
2018-02-24T08:37:29.157Z,1.17
2018-02-24T08:39:57.024Z,2.30
2018-02-24T08:42:25.184Z,2.33
2018-02-24T08:44:53.199Z,1.83
2018-02-24T08:47:21.077Z,2.40
2018-02-24T08:49:48.968Z,3.40
2018-02-24T08:52:16.839Z,2.53
2018-02-24T08:54:44.800Z,1.97
2018-02-24T08:57:12.819Z,1.47
2018-02-24T08:59:40.887Z,2.40
2018-02-24T09:02:08.928Z,2.07
2018-02-24T09:04:36.888Z,8.27
2018-02-24T09:07:04.751Z,1.30
2018-02-24T09:09:32.963Z,1.90
2018-02-24T09:12:00.897Z,2.27
2018-02-24T09:14:28.844Z,1.37
2018-02-24T09:16:56.749Z,1.30
2018-02-24T09:19:24.634Z,1.30
2018-02-24T09:21:52.515Z,1.80
2018-02-24T09:24:20.448Z,1.27
2018-02-24T09:26:48.434Z,1.70
2018-02-24T09:29:16.300Z,1.43
2018-02-24T09:31:44.181Z,1.00
2018-02-24T09:34:12.152Z,1.30
2018-02-24T09:36:40.020Z,1.37
2018-02-24T09:39:07.999Z,1.37
2018-02-24T09:41:35.967Z,2.17
2018-02-24T09:44:04.895Z,1.03
2018-02-24T09:46:32.770Z,1.70
2018-02-24T09:49:00.655Z,2.00
2018-02-24T09:51:28.683Z,1.50
2018-02-24T09:53:56.564Z,1.47
2018-02-24T09:56:24.464Z,1.83
2018-02-24T09:58:52.380Z,1.70
2018-02-24T10:01:20.235Z,1.90
2018-02-24T10:03:48.203Z,1.60
2018-02-24T10:06:16.065Z,1.73
2018-02-24T10:08:43.994Z,2.00
2018-02-24T10:11:11.973Z,2.00
2018-02-24T10:13:39.849Z,1.60
2018-02-24T10:16:07.729Z,1.67
2018-02-24T10:18:35.639Z,1.67
2018-02-24T10:21:03.563Z,1.90
2018-02-24T10:23:31.451Z,3.03
2018-02-24T10:25:59.437Z,2.37
2018-02-24T10:28:27.329Z,2.17
2018-02-24T10:30:55.204Z,2.20
2018-02-24T10:33:23.240Z,2.10
2018-02-24T10:35:51.166Z,2.50
2018-02-24T10:38:19.956Z,2.30
2018-02-24T10:40:47.853Z,1.67
2018-02-24T10:43:15.764Z,2.00
2018-02-24T10:45:43.680Z,2.70
2018-02-24T10:48:11.633Z,2.77
2018-02-24T10:50:39.649Z,2.43
2018-02-24T10:53:08.315Z,2.23
2018-02-24T10:55:36.411Z,2.00
2018-02-24T10:58:04.426Z,2.60
2018-02-24T11:00:32.293Z,2.37
2018-02-24T11:03:00.165Z,2.40
2018-02-24T11:05:28.028Z,3.00
2018-02-24T11:07:55.873Z,2.57
2018-02-24T11:10:23.768Z,2.87
2018-02-24T11:12:51.649Z,2.70
2018-02-24T11:15:19.531Z,2.60
2018-02-24T11:17:47.475Z,2.77
2018-02-24T11:20:15.301Z,1.87
2018-02-24T11:22:43.535Z,2.63
2018-02-24T11:25:11.397Z,2.40
2018-02-24T11:27:39.316Z,2.90
2018-02-24T11:30:07.220Z,2.33
2018-02-24T11:32:35.107Z,1.80
2018-02-24T11:35:03.060Z,2.40
2018-02-24T11:37:30.927Z,2.67
2018-02-24T11:39:59.799Z,3.60
2018-02-24T11:42:27.688Z,1.90
2018-02-24T11:44:55.548Z,1.63
2018-02-24T11:47:23.474Z,3.20
2018-02-24T11:49:51.339Z,2.50
2018-02-24T11:52:19.304Z,2.20
2018-02-24T11:54:47.324Z,2.33
2018-02-24T11:57:15.308Z,2.00
2018-02-24T11:59:43.585Z,2.60
2018-02-24T12:02:11.794Z,2.70
2018-02-24T12:04:39.741Z,4.20
2018-02-24T12:07:07.748Z,4.57
2018-02-24T12:09:35.636Z,3.80
2018-02-24T12:12:03.584Z,2.60
2018-02-24T12:14:31.473Z,3.20
2018-02-24T12:16:59.337Z,2.50
2018-02-24T12:19:27.231Z,2.83
2018-02-24T12:21:55.206Z,2.30
2018-02-24T12:24:23.081Z,3.33
2018-02-24T12:26:50.944Z,2.60
2018-02-24T12:29:18.794Z,3.03
2018-02-24T12:31:46.686Z,3.17
2018-02-24T12:34:14.672Z,3.20
2018-02-24T12:36:42.633Z,3.60
2018-02-24T12:39:10.616Z,3.90
2018-02-24T12:41:38.523Z,2.30
2018-02-24T12:44:06.415Z,3.53
2018-02-24T12:46:34.372Z,2.93
2018-02-24T12:49:02.211Z,3.03
2018-02-24T12:51:30.176Z,3.37
2018-02-24T12:53:58.110Z,4.07
2018-02-24T12:56:25.977Z,3.33
2018-02-24T12:58:53.872Z,4.70
2018-02-24T13:01:21.729Z,2.60
2018-02-24T13:03:49.598Z,2.73
2018-02-24T13:06:17.479Z,3.40
2018-02-24T13:08:45.432Z,3.13
2018-02-24T13:11:13.637Z,2.90
2018-02-24T13:13:41.636Z,2.60
2018-02-24T13:16:09.487Z,3.50
2018-02-24T13:18:38.371Z,2.53
2018-02-24T13:21:06.394Z,2.47
2018-02-24T13:23:34.393Z,3.50
2018-02-24T13:26:02.255Z,2.77
2018-02-24T13:28:30.146Z,2.77
2018-02-24T13:30:58.020Z,3.70
2018-02-24T13:33:27.908Z,3.40
2018-02-24T13:35:55.968Z,3.40
2018-02-24T13:38:23.836Z,4.80
2018-02-24T13:40:51.748Z,3.57
2018-02-24T13:43:19.723Z,3.50
2018-02-24T13:45:47.592Z,4.17
2018-02-24T13:48:15.511Z,3.23
2018-02-24T13:50:43.501Z,3.00
2018-02-24T13:53:12.209Z,3.33
2018-02-24T13:55:40.172Z,2.80
2018-02-24T13:58:08.756Z,3.43
2018-02-24T14:00:36.656Z,4.07
2018-02-24T14:03:04.648Z,3.20
2018-02-24T14:05:32.520Z,3.03
2018-02-24T14:08:00.449Z,4.10
2018-02-24T14:10:28.390Z,3.80
2018-02-24T14:12:56.269Z,4.20
2018-02-24T14:15:24.236Z,3.80
2018-02-24T14:17:52.140Z,4.00
2018-02-24T14:20:20.060Z,4.10
2018-02-24T14:22:47.920Z,4.03
2018-02-24T14:25:15.853Z,3.50
2018-02-24T14:27:44.041Z,5.47
2018-02-24T14:30:11.917Z,5.40
2018-02-24T14:32:39.813Z,3.63
2018-02-24T14:35:07.719Z,3.20
2018-02-24T14:37:35.755Z,4.37
2018-02-24T14:40:03.634Z,4.40
2018-02-24T14:42:31.540Z,2.90
2018-02-24T14:44:59.396Z,3.63
2018-02-24T14:47:27.251Z,5.47
2018-02-24T14:49:55.131Z,4.60
2018-02-24T14:52:23.032Z,4.20
2018-02-24T14:54:51.480Z,3.77
2018-02-24T14:57:19.421Z,3.40
2018-02-24T14:59:47.329Z,3.97
2018-02-24T15:02:15.361Z,4.60
2018-02-24T15:04:43.361Z,2.83
2018-02-24T15:07:11.263Z,3.70
2018-02-24T15:09:39.113Z,4.40
2018-02-24T15:12:06.998Z,2.60
2018-02-24T15:14:34.932Z,3.60
2018-02-24T15:17:02.865Z,3.50
2018-02-24T15:19:30.765Z,4.97
2018-02-24T15:21:58.628Z,3.57
2018-02-24T15:24:26.485Z,5.10
2018-02-24T15:26:55.285Z,5.13
2018-02-24T15:29:23.145Z,3.50
2018-02-24T15:31:51.049Z,4.00
2018-02-24T15:34:18.911Z,4.83
2018-02-24T15:36:47.582Z,4.50
2018-02-24T15:39:15.443Z,4.13
2018-02-24T15:41:43.414Z,3.83
2018-02-24T15:44:11.404Z,4.60
2018-02-24T15:46:39.332Z,4.30
2018-02-24T15:49:07.213Z,2.90
2018-02-24T15:51:35.092Z,4.67
2018-02-24T15:54:02.980Z,5.43
2018-02-24T15:56:30.870Z,4.53
2018-02-24T15:58:58.760Z,4.03
2018-02-24T16:01:26.656Z,3.10
2018-02-24T16:03:54.674Z,3.67
2018-02-24T16:06:22.525Z,3.87
2018-02-24T16:08:52.611Z,4.47
2018-02-24T16:11:20.608Z,4.30
2018-02-24T16:13:48.949Z,3.47
2018-02-24T16:16:16.902Z,3.93
2018-02-24T16:18:44.835Z,3.43
2018-02-24T16:21:12.733Z,4.73
2018-02-24T16:23:40.796Z,5.93
2018-02-24T16:26:08.661Z,6.07
2018-02-24T16:28:36.525Z,6.20
2018-02-24T16:31:04.397Z,4.93
2018-02-24T16:33:32.312Z,4.30
2018-02-24T16:36:00.197Z,4.47
2018-02-24T16:38:28.043Z,5.03
2018-02-24T16:40:56.041Z,5.17
2018-02-24T16:43:23.929Z,5.23
2018-02-24T16:45:51.783Z,4.17
2018-02-24T16:48:19.667Z,3.63
2018-02-24T16:50:47.570Z,4.03
2018-02-24T16:53:15.435Z,3.07
2018-02-24T16:55:43.383Z,3.83
2018-02-24T16:58:11.288Z,4.13
2018-02-24T17:00:39.140Z,3.30
2018-02-24T17:03:07.053Z,3.60
2018-02-24T17:05:34.907Z,3.83
2018-02-24T17:08:02.776Z,4.80
2018-02-24T17:10:32.128Z,5.43
2018-02-24T17:12:59.975Z,3.93
2018-02-24T17:15:27.861Z,5.40
2018-02-24T17:17:55.751Z,5.70
2018-02-24T17:20:23.609Z,7.47
2018-02-24T17:22:51.518Z,3.83
2018-02-24T17:25:19.416Z,6.17
2018-02-24T17:27:47.312Z,4.33
2018-02-24T17:30:15.252Z,4.80
2018-02-24T17:32:43.365Z,4.33
2018-02-24T17:35:11.248Z,3.53
2018-02-24T17:37:39.151Z,3.00
2018-02-24T17:40:07.119Z,5.17
2018-02-24T17:42:34.987Z,4.57
2018-02-24T17:45:02.855Z,9.00
2018-02-24T17:47:30.759Z,2.63
2018-02-24T17:49:58.639Z,3.80
2018-02-24T17:52:26.502Z,3.70
2018-02-24T17:54:54.380Z,3.97
2018-02-24T17:57:22.313Z,5.27
2018-02-24T17:59:50.163Z,5.97
2018-02-24T18:02:18.067Z,4.90
2018-02-24T18:04:45.980Z,4.20
2018-02-24T18:07:13.831Z,5.87
2018-02-24T18:09:41.736Z,4.57
2018-02-24T18:12:09.611Z,4.43
2018-02-24T18:14:38.474Z,6.20
2018-02-24T18:17:06.410Z,5.87
2018-02-24T18:19:34.293Z,4.37
2018-02-24T18:22:02.207Z,5.17
2018-02-24T18:24:30.065Z,5.70
2018-02-24T18:26:57.982Z,5.07
2018-02-24T18:29:25.868Z,4.23
2018-02-24T18:31:53.720Z,5.27
2018-02-24T18:34:21.637Z,3.83
2018-02-24T18:36:49.725Z,5.80
2018-02-24T18:39:17.641Z,5.10
2018-02-24T18:41:45.540Z,6.47
2018-02-24T18:44:13.502Z,5.13
2018-02-24T18:46:41.388Z,4.77
2018-02-24T18:49:09.272Z,5.30
2018-02-24T18:51:37.148Z,6.73
2018-02-24T18:54:05.073Z,2.20
2018-02-24T18:56:32.980Z,5.70
2018-02-24T18:59:00.898Z,5.90
2018-02-24T19:01:28.772Z,5.13
2018-02-24T19:03:56.722Z,6.37
2018-02-24T19:06:24.619Z,5.00
2018-02-24T19:08:52.489Z,4.77
2018-02-24T19:11:20.449Z,4.17
2018-02-24T19:13:48.356Z,5.37
2018-02-24T19:16:16.251Z,4.00
2018-02-24T19:18:44.200Z,4.27
2018-02-24T19:21:12.090Z,4.30
2018-02-24T19:23:40.009Z,3.87
2018-02-24T19:26:07.967Z,3.63
2018-02-24T19:28:35.844Z,4.70
2018-02-24T19:31:03.680Z,3.57
2018-02-24T19:33:31.642Z,4.17
2018-02-24T19:35:59.548Z,3.57
2018-02-24T19:38:27.419Z,4.43
2018-02-24T19:40:55.340Z,3.57
2018-02-24T19:43:23.253Z,3.30
2018-02-24T19:45:51.126Z,3.83
2018-02-24T19:48:19.029Z,3.97
2018-02-24T19:50:46.951Z,3.77
2018-02-24T19:53:14.820Z,3.53
2018-02-24T19:55:42.952Z,3.70
2018-02-24T19:58:10.881Z,2.93
2018-02-24T20:00:38.729Z,3.70
2018-02-24T20:03:06.657Z,3.40
2018-02-24T20:05:34.505Z,3.77
2018-02-24T20:08:02.364Z,4.23
2018-02-24T20:10:30.306Z,3.70
2018-02-24T20:12:58.156Z,4.17
2018-02-24T20:15:26.062Z,3.10
2018-02-24T20:17:54.002Z,3.50
2018-02-24T20:20:21.884Z,3.80
2018-02-24T20:22:49.768Z,3.53
2018-02-24T20:25:17.692Z,5.30
2018-02-24T20:27:45.544Z,4.43
2018-02-24T20:30:13.436Z,4.07
2018-02-24T20:32:41.349Z,3.07
2018-02-24T20:35:09.211Z,3.73
2018-02-24T20:37:37.092Z,4.30
2018-02-24T20:40:04.950Z,3.40
2018-02-24T20:42:32.847Z,4.60
2018-02-24T20:45:00.737Z,3.70
2018-02-24T20:47:28.667Z,4.03
2018-02-24T20:49:57.381Z,2.93
2018-02-24T20:52:25.241Z,3.83
2018-02-24T20:54:53.133Z,4.70
2018-02-24T20:57:21.052Z,4.00
2018-02-24T20:59:48.921Z,4.40
2018-02-24T21:02:16.846Z,5.07
2018-02-24T21:04:44.706Z,4.97
2018-02-24T21:07:12.629Z,6.73
2018-02-24T21:09:40.538Z,5.10
2018-02-24T21:12:08.470Z,3.10
2018-02-24T21:14:36.370Z,2.83
2018-02-24T21:17:04.279Z,5.10
2018-02-24T21:19:32.196Z,4.40
2018-02-24T21:22:00.095Z,3.83
2018-02-24T21:24:27.960Z,3.47
2018-02-24T21:26:55.841Z,4.60
2018-02-24T21:29:23.708Z,4.23
2018-02-24T21:31:51.566Z,4.10
2018-02-24T21:34:19.460Z,4.30
2018-02-24T21:36:47.407Z,3.67
2018-02-24T21:39:15.303Z,4.10
2018-02-24T21:41:43.191Z,3.33
2018-02-24T21:44:11.106Z,3.07
2018-02-24T21:46:39.051Z,3.07
2018-02-24T21:49:06.988Z,3.30
2018-02-24T21:51:34.888Z,3.43
2018-02-24T21:54:02.805Z,4.50
2018-02-24T21:56:30.745Z,6.80
2018-02-24T21:58:58.642Z,3.43
2018-02-24T22:01:26.574Z,3.33
2018-02-24T22:03:54.506Z,3.47
2018-02-24T22:06:22.360Z,4.20
2018-02-24T22:08:50.246Z,2.97
2018-02-24T22:11:18.152Z,4.00
2018-02-24T22:13:46.117Z,4.77
2018-02-24T22:16:13.956Z,3.77
2018-02-24T22:18:41.843Z,4.03
2018-02-24T22:21:09.720Z,3.10
2018-02-24T22:23:37.586Z,3.13
2018-02-24T22:26:05.485Z,4.53
2018-02-24T22:28:33.340Z,3.43
2018-02-24T22:31:01.207Z,3.10
2018-02-24T22:33:29.107Z,3.50
2018-02-24T22:35:56.956Z,3.70
2018-02-24T22:38:24.814Z,3.30
2018-02-24T22:40:52.701Z,3.73
2018-02-24T22:43:20.643Z,3.67
2018-02-24T22:45:48.582Z,4.60
2018-02-24T22:48:22.496Z,4.10
2018-02-24T22:50:50.350Z,3.27
2018-02-24T22:53:18.246Z,3.20
2018-02-24T22:55:46.207Z,3.63
2018-02-24T22:58:14.068Z,4.10
2018-02-24T23:00:42.023Z,4.07
2018-02-24T23:03:10.019Z,3.40
2018-02-24T23:05:37.949Z,4.10
2018-02-24T23:08:05.826Z,4.43
2018-02-24T23:10:33.714Z,3.90
2018-02-24T23:13:01.605Z,3.70
2018-02-24T23:15:29.448Z,3.77
2018-02-24T23:17:57.412Z,3.80
2018-02-24T23:20:25.303Z,4.20
2018-02-24T23:22:53.203Z,3.23
2018-02-24T23:25:22.222Z,2.87
2018-02-24T23:27:50.122Z,3.80
2018-02-24T23:30:17.996Z,4.03
2018-02-24T23:32:45.867Z,4.17
2018-02-24T23:35:14.448Z,3.90
2018-02-24T23:37:42.312Z,3.10
2018-02-24T23:40:10.223Z,3.60
2018-02-24T23:42:38.156Z,4.00
2018-02-24T23:45:06.019Z,3.63
2018-02-24T23:47:33.937Z,2.73
2018-02-24T23:50:01.831Z,3.67
2018-02-24T23:52:29.682Z,3.90
2018-02-24T23:54:57.612Z,3.90
2018-02-24T23:57:25.494Z,5.43
2018-02-24T23:59:53.397Z,4.20
